sensor_id;sensor_type;location;lat;lon;timestamp;P1;durP1;ratioP1;P2;durP2;ratioP2
9667;SDS011;4872;48.316;10.650;2023-03-14T05:06:59;0.60;;;0.60;;
9667;SDS011;4872;48.316;10.650;2023-03-14T05:09:26;0.70;;;0.70;;
9667;SDS011;4872;48.316;10.650;2023-03-14T05:11:53;1.83;;;1.67;;
9667;SDS011;4872;48.316;10.650;2023-03-14T05:14:20;1.20;;;1.10;;
9667;SDS011;4872;48.316;10.650;2023-03-14T05:16:46;1.97;;;1.70;;
9667;SDS011;4872;48.316;10.650;2023-03-14T05:19:13;4.10;;;2.30;;
9667;SDS011;4872;48.316;10.650;2023-03-14T05:21:40;0.80;;;0.70;;
9667;SDS011;4872;48.316;10.650;2023-03-14T05:30:16;1.73;;;1.00;;
9667;SDS011;4872;48.316;10.650;2023-03-14T05:32:43;0.80;;;0.80;;
9667;SDS011;4872;48.316;10.650;2023-03-14T05:35:13;1.20;;;0.70;;
9667;SDS011;4872;48.316;10.650;2023-03-14T05:37:42;0.80;;;0.80;;
9667;SDS011;4872;48.316;10.650;2023-03-14T05:40:10;0.50;;;0.50;;
9667;SDS011;4872;48.316;10.650;2023-03-14T05:42:37;0.60;;;0.60;;
9667;SDS011;4872;48.316;10.650;2023-03-14T05:45:06;0.70;;;0.70;;
9667;SDS011;4872;48.316;10.650;2023-03-14T05:47:33;0.60;;;0.60;;
9667;SDS011;4872;48.316;10.650;2023-03-14T05:50:00;0.57;;;0.57;;
9667;SDS011;4872;48.316;10.650;2023-03-14T05:52:27;0.50;;;0.50;;
9667;SDS011;4872;48.316;10.650;2023-03-14T05:54:54;0.60;;;0.60;;
9667;SDS011;4872;48.316;10.650;2023-03-14T05:57:20;1.17;;;1.07;;
9667;SDS011;4872;48.316;10.650;2023-03-14T05:59:47;0.70;;;0.70;;
9667;SDS011;4872;48.316;10.650;2023-03-14T06:02:16;1.53;;;0.70;;
9667;SDS011;4872;48.316;10.650;2023-03-14T06:04:42;0.60;;;0.60;;
9667;SDS011;4872;48.316;10.650;2023-03-14T06:07:09;0.57;;;0.57;;
9667;SDS011;4872;48.316;10.650;2023-03-14T06:09:36;1.60;;;0.90;;
9667;SDS011;4872;48.316;10.650;2023-03-14T06:12:04;0.70;;;0.70;;
9667;SDS011;4872;48.316;10.650;2023-03-14T06:14:32;0.90;;;0.67;;
9667;SDS011;4872;48.316;10.650;2023-03-14T06:16:58;0.80;;;0.80;;
9667;SDS011;4872;48.316;10.650;2023-03-14T06:19:27;1.40;;;0.90;;
9667;SDS011;4872;48.316;10.650;2023-03-14T06:21:54;0.60;;;0.60;;
9667;SDS011;4872;48.316;10.650;2023-03-14T06:24:20;0.97;;;0.97;;
9667;SDS011;4872;48.316;10.650;2023-03-14T06:26:47;1.47;;;0.80;;
9667;SDS011;4872;48.316;10.650;2023-03-14T06:29:14;1.37;;;0.67;;
9667;SDS011;4872;48.316;10.650;2023-03-14T06:31:41;2.30;;;0.80;;
9667;SDS011;4872;48.316;10.650;2023-03-14T06:34:08;2.73;;;0.87;;
9667;SDS011;4872;48.316;10.650;2023-03-14T06:36:36;1.13;;;0.80;;
9667;SDS011;4872;48.316;10.650;2023-03-14T06:39:03;0.77;;;0.77;;
9667;SDS011;4872;48.316;10.650;2023-03-14T06:41:30;0.70;;;0.70;;
9667;SDS011;4872;48.316;10.650;2023-03-14T06:43:57;1.27;;;0.70;;
9667;SDS011;4872;48.316;10.650;2023-03-14T06:46:24;0.70;;;0.70;;
9667;SDS011;4872;48.316;10.650;2023-03-14T06:48:51;0.70;;;0.70;;
9667;SDS011;4872;48.316;10.650;2023-03-14T06:51:18;0.70;;;0.70;;
9667;SDS011;4872;48.316;10.650;2023-03-14T06:53:46;0.57;;;0.57;;
9667;SDS011;4872;48.316;10.650;2023-03-14T06:56:13;0.77;;;0.77;;
9667;SDS011;4872;48.316;10.650;2023-03-14T06:58:40;0.70;;;0.70;;
9667;SDS011;4872;48.316;10.650;2023-03-14T07:01:11;0.73;;;0.73;;
9667;SDS011;4872;48.316;10.650;2023-03-14T07:03:46;0.80;;;0.80;;
9667;SDS011;4872;48.316;10.650;2023-03-14T07:06:13;1.30;;;1.20;;
9667;SDS011;4872;48.316;10.650;2023-03-14T07:08:40;0.80;;;0.80;;
9667;SDS011;4872;48.316;10.650;2023-03-14T07:11:08;0.70;;;0.70;;
9667;SDS011;4872;48.316;10.650;2023-03-14T07:13:36;1.23;;;0.60;;
9667;SDS011;4872;48.316;10.650;2023-03-14T07:16:03;1.50;;;1.00;;
9667;SDS011;4872;48.316;10.650;2023-03-14T07:18:31;1.80;;;0.80;;
9667;SDS011;4872;48.316;10.650;2023-03-14T07:20:58;1.00;;;0.90;;
9667;SDS011;4872;48.316;10.650;2023-03-14T07:23:24;0.70;;;0.70;;
9667;SDS011;4872;48.316;10.650;2023-03-14T07:25:51;1.47;;;0.80;;
9667;SDS011;4872;48.316;10.650;2023-03-14T07:28:20;0.60;;;0.60;;
9667;SDS011;4872;48.316;10.650;2023-03-14T07:30:48;0.73;;;0.73;;
9667;SDS011;4872;48.316;10.650;2023-03-14T07:33:15;0.70;;;0.70;;
9667;SDS011;4872;48.316;10.650;2023-03-14T07:35:41;0.70;;;0.70;;
9667;SDS011;4872;48.316;10.650;2023-03-14T07:38:08;0.90;;;0.90;;
9667;SDS011;4872;48.316;10.650;2023-03-14T07:40:35;0.70;;;0.70;;
9667;SDS011;4872;48.316;10.650;2023-03-14T07:43:02;2.03;;;1.30;;
9667;SDS011;4872;48.316;10.650;2023-03-14T07:45:30;1.13;;;1.00;;
9667;SDS011;4872;48.316;10.650;2023-03-14T07:47:57;2.47;;;2.23;;
9667;SDS011;4872;48.316;10.650;2023-03-14T07:50:24;1.00;;;0.90;;
9667;SDS011;4872;48.316;10.650;2023-03-14T07:52:51;0.83;;;0.83;;
9667;SDS011;4872;48.316;10.650;2023-03-14T07:55:18;1.07;;;0.90;;
9667;SDS011;4872;48.316;10.650;2023-03-14T07:57:45;1.90;;;1.50;;
9667;SDS011;4872;48.316;10.650;2023-03-14T08:00:12;2.63;;;1.30;;
9667;SDS011;4872;48.316;10.650;2023-03-14T08:02:41;1.40;;;1.30;;
9667;SDS011;4872;48.316;10.650;2023-03-14T08:05:08;0.80;;;0.80;;
9667;SDS011;4872;48.316;10.650;2023-03-14T08:07:35;1.10;;;1.00;;
9667;SDS011;4872;48.316;10.650;2023-03-14T08:10:03;1.30;;;1.20;;
9667;SDS011;4872;48.316;10.650;2023-03-14T08:12:31;2.20;;;1.50;;
9667;SDS011;4872;48.316;10.650;2023-03-14T08:14:58;1.47;;;1.37;;
9667;SDS011;4872;48.316;10.650;2023-03-14T08:17:25;0.90;;;0.90;;
9667;SDS011;4872;48.316;10.650;2023-03-14T08:19:53;0.70;;;0.70;;
9667;SDS011;4872;48.316;10.650;2023-03-14T08:22:20;0.70;;;0.70;;
9667;SDS011;4872;48.316;10.650;2023-03-14T08:24:47;0.73;;;0.73;;
9667;SDS011;4872;48.316;10.650;2023-03-14T08:27:13;1.70;;;0.90;;
9667;SDS011;4872;48.316;10.650;2023-03-14T08:29:40;2.00;;;0.60;;
9667;SDS011;4872;48.316;10.650;2023-03-14T08:32:07;0.60;;;0.60;;
9667;SDS011;4872;48.316;10.650;2023-03-14T08:34:34;0.53;;;0.53;;
9667;SDS011;4872;48.316;10.650;2023-03-14T08:37:02;1.30;;;0.70;;
9667;SDS011;4872;48.316;10.650;2023-03-14T08:39:29;0.83;;;0.83;;
9667;SDS011;4872;48.316;10.650;2023-03-14T08:41:56;1.27;;;0.60;;
9667;SDS011;4872;48.316;10.650;2023-03-14T08:44:23;1.43;;;0.93;;
9667;SDS011;4872;48.316;10.650;2023-03-14T08:46:50;4.83;;;2.63;;
9667;SDS011;4872;48.316;10.650;2023-03-14T08:49:16;1.77;;;1.43;;
9667;SDS011;4872;48.316;10.650;2023-03-14T08:51:43;4.07;;;3.13;;
9667;SDS011;4872;48.316;10.650;2023-03-14T08:54:11;1.47;;;1.10;;
9667;SDS011;4872;48.316;10.650;2023-03-14T08:56:38;1.60;;;1.17;;
9667;SDS011;4872;48.316;10.650;2023-03-14T08:59:05;3.10;;;2.23;;
9667;SDS011;4872;48.316;10.650;2023-03-14T09:01:33;3.97;;;2.60;;
9667;SDS011;4872;48.316;10.650;2023-03-14T09:04:00;0.87;;;0.87;;
9667;SDS011;4872;48.316;10.650;2023-03-14T09:06:27;0.83;;;0.73;;
9667;SDS011;4872;48.316;10.650;2023-03-14T09:08:53;0.87;;;0.87;;
9667;SDS011;4872;48.316;10.650;2023-03-14T09:11:22;0.70;;;0.70;;
9667;SDS011;4872;48.316;10.650;2023-03-14T09:13:48;0.97;;;0.70;;
9667;SDS011;4872;48.316;10.650;2023-03-14T09:16:15;0.97;;;0.70;;
9667;SDS011;4872;48.316;10.650;2023-03-14T09:18:42;0.70;;;0.70;;
9667;SDS011;4872;48.316;10.650;2023-03-14T09:21:09;0.53;;;0.53;;
9667;SDS011;4872;48.316;10.650;2023-03-14T09:23:35;0.73;;;0.60;;
9667;SDS011;4872;48.316;10.650;2023-03-14T09:26:02;1.67;;;0.80;;
9667;SDS011;4872;48.316;10.650;2023-03-14T09:28:30;0.60;;;0.60;;
9667;SDS011;4872;48.316;10.650;2023-03-14T09:30:57;1.90;;;1.00;;
9667;SDS011;4872;48.316;10.650;2023-03-14T09:33:24;1.10;;;1.00;;
9667;SDS011;4872;48.316;10.650;2023-03-14T09:35:51;2.13;;;0.97;;
9667;SDS011;4872;48.316;10.650;2023-03-14T09:38:18;0.83;;;0.80;;
9667;SDS011;4872;48.316;10.650;2023-03-14T09:40:45;0.80;;;0.80;;
9667;SDS011;4872;48.316;10.650;2023-03-14T09:43:14;0.93;;;0.80;;
9667;SDS011;4872;48.316;10.650;2023-03-14T09:45:43;0.60;;;0.60;;
9667;SDS011;4872;48.316;10.650;2023-03-14T09:48:14;1.53;;;0.80;;
9667;SDS011;4872;48.316;10.650;2023-03-14T09:50:43;0.70;;;0.70;;
9667;SDS011;4872;48.316;10.650;2023-03-14T09:53:15;0.90;;;0.77;;
9667;SDS011;4872;48.316;10.650;2023-03-14T09:55:45;0.60;;;0.60;;
9667;SDS011;4872;48.316;10.650;2023-03-14T09:58:14;0.80;;;0.80;;
9667;SDS011;4872;48.316;10.650;2023-03-14T10:00:45;0.80;;;0.80;;
9667;SDS011;4872;48.316;10.650;2023-03-14T10:03:23;0.80;;;0.63;;
9667;SDS011;4872;48.316;10.650;2023-03-14T10:05:52;1.10;;;1.00;;
9667;SDS011;4872;48.316;10.650;2023-03-14T10:08:19;0.97;;;0.90;;
9667;SDS011;4872;48.316;10.650;2023-03-14T10:10:46;0.60;;;0.60;;
9667;SDS011;4872;48.316;10.650;2023-03-14T10:13:14;1.60;;;1.10;;
9667;SDS011;4872;48.316;10.650;2023-03-14T10:15:48;3.27;;;1.47;;
9667;SDS011;4872;48.316;10.650;2023-03-14T10:18:17;1.40;;;1.03;;
9667;SDS011;4872;48.316;10.650;2023-03-14T10:20:45;1.93;;;0.87;;
9667;SDS011;4872;48.316;10.650;2023-03-14T10:23:22;0.80;;;0.80;;
9667;SDS011;4872;48.316;10.650;2023-03-14T10:26:00;0.60;;;0.60;;
9667;SDS011;4872;48.316;10.650;2023-03-14T10:28:39;0.70;;;0.70;;
9667;SDS011;4872;48.316;10.650;2023-03-14T10:31:10;0.70;;;0.70;;
9667;SDS011;4872;48.316;10.650;2023-03-14T10:33:38;0.60;;;0.60;;
9667;SDS011;4872;48.316;10.650;2023-03-14T10:36:12;0.73;;;0.73;;
9667;SDS011;4872;48.316;10.650;2023-03-14T10:38:45;0.70;;;0.70;;
9667;SDS011;4872;48.316;10.650;2023-03-14T10:41:16;0.70;;;0.70;;
9667;SDS011;4872;48.316;10.650;2023-03-14T10:43:45;1.27;;;0.97;;
9667;SDS011;4872;48.316;10.650;2023-03-14T10:46:17;0.83;;;0.83;;
9667;SDS011;4872;48.316;10.650;2023-03-14T10:48:45;0.63;;;0.63;;
9667;SDS011;4872;48.316;10.650;2023-03-14T10:51:18;0.60;;;0.60;;
9667;SDS011;4872;48.316;10.650;2023-03-14T10:53:55;1.23;;;0.80;;
9667;SDS011;4872;48.316;10.650;2023-03-14T10:56:23;2.57;;;0.80;;
9667;SDS011;4872;48.316;10.650;2023-03-14T10:58:52;0.70;;;0.70;;
9667;SDS011;4872;48.316;10.650;2023-03-14T11:01:31;2.90;;;0.80;;
9667;SDS011;4872;48.316;10.650;2023-03-14T11:04:08;1.00;;;0.60;;
9667;SDS011;4872;48.316;10.650;2023-03-14T11:06:47;1.57;;;0.80;;
9667;SDS011;4872;48.316;10.650;2023-03-14T11:09:21;1.57;;;0.50;;
9667;SDS011;4872;48.316;10.650;2023-03-14T11:11:55;0.80;;;0.80;;
9667;SDS011;4872;48.316;10.650;2023-03-14T11:14:31;0.50;;;0.50;;
9667;SDS011;4872;48.316;10.650;2023-03-14T11:17:05;0.70;;;0.70;;
9667;SDS011;4872;48.316;10.650;2023-03-14T11:19:54;0.90;;;0.70;;
9667;SDS011;4872;48.316;10.650;2023-03-14T11:22:35;1.07;;;0.70;;
9667;SDS011;4872;48.316;10.650;2023-03-14T11:25:07;0.80;;;0.80;;
9667;SDS011;4872;48.316;10.650;2023-03-14T11:27:43;0.70;;;0.70;;
9667;SDS011;4872;48.316;10.650;2023-03-14T11:30:18;1.10;;;0.70;;
9667;SDS011;4872;48.316;10.650;2023-03-14T11:32:51;0.60;;;0.60;;
9667;SDS011;4872;48.316;10.650;2023-03-14T11:35:26;0.60;;;0.60;;
9667;SDS011;4872;48.316;10.650;2023-03-14T11:37:59;0.57;;;0.57;;
9667;SDS011;4872;48.316;10.650;2023-03-14T11:40:36;0.60;;;0.60;;
9667;SDS011;4872;48.316;10.650;2023-03-14T11:43:06;0.60;;;0.60;;
9667;SDS011;4872;48.316;10.650;2023-03-14T11:45:39;0.60;;;0.60;;
9667;SDS011;4872;48.316;10.650;2023-03-14T11:48:17;0.73;;;0.50;;
9667;SDS011;4872;48.316;10.650;2023-03-14T11:50:51;0.60;;;0.60;;
9667;SDS011;4872;48.316;10.650;2023-03-14T11:53:22;0.53;;;0.53;;
9667;SDS011;4872;48.316;10.650;2023-03-14T11:55:56;0.73;;;0.47;;
9667;SDS011;4872;48.316;10.650;2023-03-14T11:58:23;0.50;;;0.50;;
9667;SDS011;4872;48.316;10.650;2023-03-14T12:00:53;0.60;;;0.60;;
9667;SDS011;4872;48.316;10.650;2023-03-14T12:03:26;0.50;;;0.50;;
9667;SDS011;4872;48.316;10.650;2023-03-14T12:06:02;1.00;;;0.40;;
9667;SDS011;4872;48.316;10.650;2023-03-14T12:08:39;0.70;;;0.70;;
9667;SDS011;4872;48.316;10.650;2023-03-14T12:11:15;1.43;;;0.60;;
9667;SDS011;4872;48.316;10.650;2023-03-14T12:13:46;0.60;;;0.50;;
9667;SDS011;4872;48.316;10.650;2023-03-14T12:16:32;0.60;;;0.60;;
9667;SDS011;4872;48.316;10.650;2023-03-14T12:22:16;0.60;;;0.60;;
9667;SDS011;4872;48.316;10.650;2023-03-14T12:24:54;0.70;;;0.50;;
9667;SDS011;4872;48.316;10.650;2023-03-14T12:27:40;0.60;;;0.60;;
9667;SDS011;4872;48.316;10.650;2023-03-14T12:30:37;0.67;;;0.67;;
9667;SDS011;4872;48.316;10.650;2023-03-14T12:36:02;0.53;;;0.53;;
9667;SDS011;4872;48.316;10.650;2023-03-14T12:38:39;0.60;;;0.50;;
9667;SDS011;4872;48.316;10.650;2023-03-14T12:41:14;0.60;;;0.60;;
9667;SDS011;4872;48.316;10.650;2023-03-14T12:43:43;0.60;;;0.60;;
9667;SDS011;4872;48.316;10.650;2023-03-14T12:46:20;0.67;;;0.57;;
9667;SDS011;4872;48.316;10.650;2023-03-14T12:48:49;0.50;;;0.50;;
9667;SDS011;4872;48.316;10.650;2023-03-14T12:51:26;0.50;;;0.50;;
9667;SDS011;4872;48.316;10.650;2023-03-14T12:54:03;0.57;;;0.57;;
9667;SDS011;4872;48.316;10.650;2023-03-14T12:56:53;0.50;;;0.50;;
9667;SDS011;4872;48.316;10.650;2023-03-14T12:59:30;0.80;;;0.60;;
9667;SDS011;4872;48.316;10.650;2023-03-14T13:01:59;0.50;;;0.50;;
9667;SDS011;4872;48.316;10.650;2023-03-14T13:04:30;0.50;;;0.50;;
9667;SDS011;4872;48.316;10.650;2023-03-14T13:07:00;0.50;;;0.50;;
9667;SDS011;4872;48.316;10.650;2023-03-14T13:12:27;0.50;;;0.50;;
9667;SDS011;4872;48.316;10.650;2023-03-14T13:15:00;0.57;;;0.57;;
9667;SDS011;4872;48.316;10.650;2023-03-14T13:17:31;0.50;;;0.50;;
9667;SDS011;4872;48.316;10.650;2023-03-14T13:20:00;0.50;;;0.50;;
9667;SDS011;4872;48.316;10.650;2023-03-14T13:22:33;0.53;;;0.53;;
9667;SDS011;4872;48.316;10.650;2023-03-14T13:25:04;0.67;;;0.60;;
9667;SDS011;4872;48.316;10.650;2023-03-14T13:27:33;0.60;;;0.60;;
9667;SDS011;4872;48.316;10.650;2023-03-14T13:30:05;1.50;;;1.40;;
9667;SDS011;4872;48.316;10.650;2023-03-14T13:32:41;0.63;;;0.63;;
9667;SDS011;4872;48.316;10.650;2023-03-14T13:35:14;0.80;;;0.80;;
9667;SDS011;4872;48.316;10.650;2023-03-14T13:37:43;0.60;;;0.60;;
9667;SDS011;4872;48.316;10.650;2023-03-14T13:40:18;0.70;;;0.70;;
9667;SDS011;4872;48.316;10.650;2023-03-14T13:42:46;0.60;;;0.60;;
9667;SDS011;4872;48.316;10.650;2023-03-14T13:45:14;1.27;;;0.93;;
9667;SDS011;4872;48.316;10.650;2023-03-14T13:47:40;0.80;;;0.80;;
9667;SDS011;4872;48.316;10.650;2023-03-14T13:50:12;0.60;;;0.60;;
9667;SDS011;4872;48.316;10.650;2023-03-14T13:52:43;0.80;;;0.80;;
9667;SDS011;4872;48.316;10.650;2023-03-14T13:55:13;1.47;;;0.80;;
9667;SDS011;4872;48.316;10.650;2023-03-14T13:57:43;1.07;;;1.07;;
9667;SDS011;4872;48.316;10.650;2023-03-14T14:00:17;1.50;;;0.90;;
9667;SDS011;4872;48.316;10.650;2023-03-14T14:02:45;0.73;;;0.73;;
9667;SDS011;4872;48.316;10.650;2023-03-14T14:05:13;1.27;;;1.17;;
9667;SDS011;4872;48.316;10.650;2023-03-14T14:07:43;1.27;;;0.60;;
9667;SDS011;4872;48.316;10.650;2023-03-14T14:10:11;0.93;;;0.93;;
9667;SDS011;4872;48.316;10.650;2023-03-14T14:12:39;1.03;;;1.03;;
9667;SDS011;4872;48.316;10.650;2023-03-14T14:15:11;0.90;;;0.90;;
9667;SDS011;4872;48.316;10.650;2023-03-14T14:17:44;5.67;;;3.90;;
9667;SDS011;4872;48.316;10.650;2023-03-14T14:20:15;2.00;;;1.73;;
9667;SDS011;4872;48.316;10.650;2023-03-14T14:22:49;0.90;;;0.90;;
9667;SDS011;4872;48.316;10.650;2023-03-14T14:25:16;1.77;;;1.67;;
9667;SDS011;4872;48.316;10.650;2023-03-14T14:27:44;2.30;;;1.47;;
9667;SDS011;4872;48.316;10.650;2023-03-14T14:30:30;4.13;;;3.10;;
9667;SDS011;4872;48.316;10.650;2023-03-14T14:33:17;3.17;;;2.50;;
9667;SDS011;4872;48.316;10.650;2023-03-14T14:35:52;2.20;;;2.00;;
9667;SDS011;4872;48.316;10.650;2023-03-14T14:38:22;2.63;;;2.43;;
9667;SDS011;4872;48.316;10.650;2023-03-14T14:40:51;2.23;;;2.13;;
9667;SDS011;4872;48.316;10.650;2023-03-14T14:43:22;3.13;;;1.73;;
9667;SDS011;4872;48.316;10.650;2023-03-14T14:45:50;1.30;;;1.20;;
9667;SDS011;4872;48.316;10.650;2023-03-14T14:48:20;1.53;;;1.40;;
9667;SDS011;4872;48.316;10.650;2023-03-14T14:50:49;1.90;;;1.60;;
9667;SDS011;4872;48.316;10.650;2023-03-14T14:53:23;3.33;;;1.60;;
9667;SDS011;4872;48.316;10.650;2023-03-14T14:55:54;1.60;;;1.50;;
9667;SDS011;4872;48.316;10.650;2023-03-14T14:58:24;1.03;;;1.03;;
9667;SDS011;4872;48.316;10.650;2023-03-14T15:00:53;1.87;;;1.60;;
9667;SDS011;4872;48.316;10.650;2023-03-14T15:03:22;1.43;;;1.00;;
9667;SDS011;4872;48.316;10.650;2023-03-14T15:05:53;1.60;;;1.50;;
9667;SDS011;4872;48.316;10.650;2023-03-14T15:08:21;1.40;;;1.30;;
9667;SDS011;4872;48.316;10.650;2023-03-14T15:10:51;3.37;;;1.20;;
9667;SDS011;4872;48.316;10.650;2023-03-14T15:13:18;1.30;;;1.20;;
9667;SDS011;4872;48.316;10.650;2023-03-14T15:15:44;2.90;;;1.30;;
9667;SDS011;4872;48.316;10.650;2023-03-14T15:18:13;2.03;;;1.50;;
9667;SDS011;4872;48.316;10.650;2023-03-14T15:20:41;2.10;;;1.40;;
9667;SDS011;4872;48.316;10.650;2023-03-14T15:23:09;2.10;;;1.53;;
9667;SDS011;4872;48.316;10.650;2023-03-14T15:25:37;1.40;;;1.30;;
9667;SDS011;4872;48.316;10.650;2023-03-14T15:28:09;1.83;;;1.53;;
9667;SDS011;4872;48.316;10.650;2023-03-14T15:30:46;2.67;;;1.30;;
9667;SDS011;4872;48.316;10.650;2023-03-14T15:33:17;1.10;;;0.90;;
9667;SDS011;4872;48.316;10.650;2023-03-14T15:35:44;2.17;;;1.67;;
9667;SDS011;4872;48.316;10.650;2023-03-14T15:38:12;2.40;;;1.60;;
9667;SDS011;4872;48.316;10.650;2023-03-14T15:40:41;2.30;;;1.20;;
9667;SDS011;4872;48.316;10.650;2023-03-14T15:43:09;4.10;;;2.93;;
9667;SDS011;4872;48.316;10.650;2023-03-14T15:45:36;1.90;;;1.80;;
9667;SDS011;4872;48.316;10.650;2023-03-14T15:48:03;2.23;;;2.00;;
9667;SDS011;4872;48.316;10.650;2023-03-14T15:50:30;3.10;;;2.10;;
9667;SDS011;4872;48.316;10.650;2023-03-14T15:52:57;2.10;;;1.90;;
9667;SDS011;4872;48.316;10.650;2023-03-14T15:55:24;3.43;;;2.20;;
9667;SDS011;4872;48.316;10.650;2023-03-14T15:57:50;2.27;;;1.90;;
9667;SDS011;4872;48.316;10.650;2023-03-14T16:00:19;2.57;;;1.97;;
9667;SDS011;4872;48.316;10.650;2023-03-14T16:02:47;2.17;;;1.70;;
9667;SDS011;4872;48.316;10.650;2023-03-14T16:05:15;3.27;;;2.70;;
9667;SDS011;4872;48.316;10.650;2023-03-14T16:07:42;3.50;;;2.07;;
9667;SDS011;4872;48.316;10.650;2023-03-14T16:10:10;2.50;;;1.63;;
9667;SDS011;4872;48.316;10.650;2023-03-14T16:12:38;2.53;;;2.03;;
9667;SDS011;4872;48.316;10.650;2023-03-14T16:15:05;2.30;;;1.60;;
9667;SDS011;4872;48.316;10.650;2023-03-14T16:17:34;3.83;;;2.43;;
9667;SDS011;4872;48.316;10.650;2023-03-14T16:20:02;2.53;;;2.33;;
9667;SDS011;4872;48.316;10.650;2023-03-14T16:22:29;3.60;;;2.30;;
9667;SDS011;4872;48.316;10.650;2023-03-14T16:25:01;4.50;;;2.40;;
9667;SDS011;4872;48.316;10.650;2023-03-14T16:27:28;3.30;;;2.50;;
9667;SDS011;4872;48.316;10.650;2023-03-14T16:29:55;3.93;;;3.13;;
9667;SDS011;4872;48.316;10.650;2023-03-14T16:32:22;4.53;;;3.37;;
9667;SDS011;4872;48.316;10.650;2023-03-14T16:34:51;4.00;;;2.00;;
9667;SDS011;4872;48.316;10.650;2023-03-14T16:37:18;3.13;;;2.07;;
9667;SDS011;4872;48.316;10.650;2023-03-14T16:39:46;4.43;;;2.47;;
9667;SDS011;4872;48.316;10.650;2023-03-14T16:42:13;5.73;;;2.77;;
9667;SDS011;4872;48.316;10.650;2023-03-14T16:44:39;5.10;;;2.87;;
9667;SDS011;4872;48.316;10.650;2023-03-14T16:47:06;6.97;;;3.00;;
9667;SDS011;4872;48.316;10.650;2023-03-14T16:49:34;3.33;;;1.90;;
9667;SDS011;4872;48.316;10.650;2023-03-14T16:52:02;4.60;;;2.77;;
9667;SDS011;4872;48.316;10.650;2023-03-14T16:54:29;2.33;;;2.13;;
9667;SDS011;4872;48.316;10.650;2023-03-14T16:56:56;2.47;;;1.87;;
9667;SDS011;4872;48.316;10.650;2023-03-14T16:59:23;2.57;;;1.93;;
9667;SDS011;4872;48.316;10.650;2023-03-14T17:01:52;2.80;;;2.20;;
9667;SDS011;4872;48.316;10.650;2023-03-14T17:04:20;1.77;;;1.53;;
9667;SDS011;4872;48.316;10.650;2023-03-14T17:06:47;2.27;;;1.50;;
9667;SDS011;4872;48.316;10.650;2023-03-14T17:09:16;1.67;;;1.40;;
9667;SDS011;4872;48.316;10.650;2023-03-14T17:11:43;3.27;;;1.67;;
9667;SDS011;4872;48.316;10.650;2023-03-14T17:14:10;3.40;;;2.10;;
9667;SDS011;4872;48.316;10.650;2023-03-14T17:16:37;2.50;;;2.30;;
9667;SDS011;4872;48.316;10.650;2023-03-14T17:19:04;2.77;;;1.70;;
9667;SDS011;4872;48.316;10.650;2023-03-14T17:21:31;3.63;;;2.30;;
9667;SDS011;4872;48.316;10.650;2023-03-14T17:23:58;2.10;;;1.90;;
9667;SDS011;4872;48.316;10.650;2023-03-14T17:26:26;1.60;;;1.50;;
9667;SDS011;4872;48.316;10.650;2023-03-14T17:28:54;2.60;;;2.10;;
9667;SDS011;4872;48.316;10.650;2023-03-14T17:31:21;4.07;;;1.70;;
9667;SDS011;4872;48.316;10.650;2023-03-14T17:33:48;4.03;;;1.87;;
9667;SDS011;4872;48.316;10.650;2023-03-14T17:36:16;4.00;;;2.33;;
9667;SDS011;4872;48.316;10.650;2023-03-14T17:38:46;4.00;;;2.23;;
9667;SDS011;4872;48.316;10.650;2023-03-14T17:41:14;4.07;;;2.10;;
9667;SDS011;4872;48.316;10.650;2023-03-14T17:43:42;1.87;;;1.50;;
9667;SDS011;4872;48.316;10.650;2023-03-14T17:46:10;5.17;;;2.40;;
9667;SDS011;4872;48.316;10.650;2023-03-14T17:48:40;2.87;;;2.10;;
9667;SDS011;4872;48.316;10.650;2023-03-14T17:51:08;4.10;;;2.23;;
9667;SDS011;4872;48.316;10.650;2023-03-14T17:53:36;2.60;;;1.70;;
9667;SDS011;4872;48.316;10.650;2023-03-14T17:56:03;5.07;;;2.10;;
9667;SDS011;4872;48.316;10.650;2023-03-14T17:58:30;4.47;;;2.07;;
9667;SDS011;4872;48.316;10.650;2023-03-14T18:01:07;2.83;;;1.60;;
9667;SDS011;4872;48.316;10.650;2023-03-14T18:03:36;8.67;;;4.40;;
9667;SDS011;4872;48.316;10.650;2023-03-14T18:06:03;2.13;;;1.50;;
9667;SDS011;4872;48.316;10.650;2023-03-14T18:08:33;4.73;;;1.90;;
9667;SDS011;4872;48.316;10.650;2023-03-14T18:11:01;3.07;;;1.60;;
9667;SDS011;4872;48.316;10.650;2023-03-14T18:13:28;3.07;;;1.50;;
9667;SDS011;4872;48.316;10.650;2023-03-14T18:15:56;1.93;;;1.47;;
9667;SDS011;4872;48.316;10.650;2023-03-14T18:18:24;2.10;;;1.87;;
9667;SDS011;4872;48.316;10.650;2023-03-14T18:20:54;4.27;;;2.20;;
9667;SDS011;4872;48.316;10.650;2023-03-14T18:23:21;3.93;;;2.53;;
9667;SDS011;4872;48.316;10.650;2023-03-14T18:25:49;2.23;;;1.90;;
9667;SDS011;4872;48.316;10.650;2023-03-14T18:28:16;2.10;;;1.50;;
9667;SDS011;4872;48.316;10.650;2023-03-14T18:30:45;3.50;;;2.50;;
9667;SDS011;4872;48.316;10.650;2023-03-14T18:33:17;1.80;;;1.70;;
9667;SDS011;4872;48.316;10.650;2023-03-14T18:35:46;4.57;;;2.63;;
9667;SDS011;4872;48.316;10.650;2023-03-14T18:38:15;6.07;;;3.27;;
9667;SDS011;4872;48.316;10.650;2023-03-14T18:40:42;3.70;;;1.90;;
9667;SDS011;4872;48.316;10.650;2023-03-14T18:43:09;4.07;;;2.10;;
9667;SDS011;4872;48.316;10.650;2023-03-14T18:45:36;3.43;;;2.40;;
9667;SDS011;4872;48.316;10.650;2023-03-14T18:48:03;3.23;;;2.53;;
9667;SDS011;4872;48.316;10.650;2023-03-14T18:50:31;2.67;;;1.73;;
9667;SDS011;4872;48.316;10.650;2023-03-14T18:52:59;2.57;;;1.63;;
9667;SDS011;4872;48.316;10.650;2023-03-14T18:55:27;3.77;;;1.80;;
9667;SDS011;4872;48.316;10.650;2023-03-14T18:57:54;4.50;;;2.47;;
9667;SDS011;4872;48.316;10.650;2023-03-14T19:00:21;4.43;;;2.87;;
9667;SDS011;4872;48.316;10.650;2023-03-14T19:02:50;4.67;;;2.60;;
9667;SDS011;4872;48.316;10.650;2023-03-14T19:05:17;3.37;;;2.37;;
9667;SDS011;4872;48.316;10.650;2023-03-14T19:07:44;3.47;;;2.60;;
9667;SDS011;4872;48.316;10.650;2023-03-14T19:10:13;4.27;;;2.60;;
9667;SDS011;4872;48.316;10.650;2023-03-14T19:12:39;5.33;;;2.93;;
9667;SDS011;4872;48.316;10.650;2023-03-14T19:15:07;2.37;;;2.17;;
9667;SDS011;4872;48.316;10.650;2023-03-14T19:17:35;2.20;;;2.00;;
9667;SDS011;4872;48.316;10.650;2023-03-14T19:20:03;5.00;;;2.40;;
9667;SDS011;4872;48.316;10.650;2023-03-14T19:22:30;4.13;;;2.10;;
9667;SDS011;4872;48.316;10.650;2023-03-14T19:24:58;2.27;;;2.10;;
9667;SDS011;4872;48.316;10.650;2023-03-14T19:27:26;2.43;;;2.23;;
9667;SDS011;4872;48.316;10.650;2023-03-14T19:29:58;4.60;;;1.97;;
9667;SDS011;4872;48.316;10.650;2023-03-14T19:32:34;9.47;;;2.93;;
9667;SDS011;4872;48.316;10.650;2023-03-14T19:35:02;1.73;;;1.60;;
9667;SDS011;4872;48.316;10.650;2023-03-14T19:37:30;3.57;;;2.40;;
9667;SDS011;4872;48.316;10.650;2023-03-14T19:39:57;3.17;;;2.20;;
9667;SDS011;4872;48.316;10.650;2023-03-14T19:42:25;1.93;;;1.67;;
9667;SDS011;4872;48.316;10.650;2023-03-14T19:44:53;2.37;;;1.67;;
9667;SDS011;4872;48.316;10.650;2023-03-14T19:47:20;2.90;;;1.80;;
9667;SDS011;4872;48.316;10.650;2023-03-14T19:49:47;2.83;;;1.80;;
9667;SDS011;4872;48.316;10.650;2023-03-14T19:52:14;3.33;;;2.00;;
9667;SDS011;4872;48.316;10.650;2023-03-14T19:54:41;1.97;;;1.70;;
9667;SDS011;4872;48.316;10.650;2023-03-14T19:57:08;1.67;;;1.57;;
9667;SDS011;4872;48.316;10.650;2023-03-14T19:59:36;2.83;;;2.23;;
9667;SDS011;4872;48.316;10.650;2023-03-14T20:02:05;4.97;;;2.33;;
9667;SDS011;4872;48.316;10.650;2023-03-14T20:04:32;6.50;;;4.07;;
9667;SDS011;4872;48.316;10.650;2023-03-14T20:07:00;2.80;;;2.20;;
9667;SDS011;4872;48.316;10.650;2023-03-14T20:09:28;2.83;;;2.00;;
9667;SDS011;4872;48.316;10.650;2023-03-14T20:11:57;3.43;;;1.87;;
9667;SDS011;4872;48.316;10.650;2023-03-14T20:14:25;4.17;;;1.93;;
9667;SDS011;4872;48.316;10.650;2023-03-14T20:16:53;3.10;;;1.90;;
9667;SDS011;4872;48.316;10.650;2023-03-14T20:19:20;3.07;;;1.80;;
9667;SDS011;4872;48.316;10.650;2023-03-14T20:21:47;2.93;;;1.90;;
9667;SDS011;4872;48.316;10.650;2023-03-14T20:24:15;1.97;;;1.60;;
9667;SDS011;4872;48.316;10.650;2023-03-14T20:26:42;5.33;;;2.67;;
9667;SDS011;4872;48.316;10.650;2023-03-14T20:29:09;8.20;;;4.83;;
9667;SDS011;4872;48.316;10.650;2023-03-14T20:31:38;3.03;;;2.27;;
9667;SDS011;4872;48.316;10.650;2023-03-14T20:34:06;2.83;;;1.90;;